sensor_id;sensor_type;location;lat;lon;timestamp;pressure;altitude;pressure_sealevel;temperature;humidity
58092;BME280;43896;48.178;11.578;2022-08-14T00:01:17;95617.16;;;19.01;53.81
58092;BME280;43896;48.178;11.578;2022-08-14T00:03:50;95611.81;;;19.01;53.57
58092;BME280;43896;48.178;11.578;2022-08-14T00:06:26;95612.31;;;18.91;54.14
58092;BME280;43896;48.178;11.578;2022-08-14T00:09:00;95595.38;;;18.79;54.69
58092;BME280;43896;48.178;11.578;2022-08-14T00:11:46;95585.34;;;18.74;54.67
58092;BME280;43896;48.178;11.578;2022-08-14T00:14:17;95605.59;;;18.82;54.82
58092;BME280;43896;48.178;11.578;2022-08-14T00:16:47;95584.72;;;18.79;55.00
58092;BME280;43896;48.178;11.578;2022-08-14T00:19:17;95613.94;;;18.92;54.69
58092;BME280;43896;48.178;11.578;2022-08-14T00:21:50;95598.03;;;18.79;55.09
58092;BME280;43896;48.178;11.578;2022-08-14T00:24:19;95624.88;;;18.78;55.09
58092;BME280;43896;48.178;11.578;2022-08-14T00:26:47;95574.41;;;18.51;55.59
58092;BME280;43896;48.178;11.578;2022-08-14T00:29:13;95603.22;;;18.67;55.31
58092;BME280;43896;48.178;11.578;2022-08-14T00:31:43;95579.75;;;18.51;55.61
58092;BME280;43896;48.178;11.578;2022-08-14T00:34:11;95596.88;;;18.62;55.37
58092;BME280;43896;48.178;11.578;2022-08-14T00:36:44;95573.63;;;18.50;55.08
58092;BME280;43896;48.178;11.578;2022-08-14T00:39:13;95561.53;;;18.48;55.56
58092;BME280;43896;48.178;11.578;2022-08-14T00:41:42;95572.16;;;18.54;55.91
58092;BME280;43896;48.178;11.578;2022-08-14T00:44:15;95594.81;;;18.70;55.75
58092;BME280;43896;48.178;11.578;2022-08-14T00:46:41;95563.41;;;18.41;55.90
58092;BME280;43896;48.178;11.578;2022-08-14T00:49:11;95582.78;;;18.54;56.62
58092;BME280;43896;48.178;11.578;2022-08-14T00:51:42;95564.25;;;18.41;56.37
58092;BME280;43896;48.178;11.578;2022-08-14T00:54:15;95568.56;;;18.35;56.50
58092;BME280;43896;48.178;11.578;2022-08-14T00:56:48;95576.91;;;18.46;57.09
58092;BME280;43896;48.178;11.578;2022-08-14T00:59:16;95558.34;;;18.32;57.00
58092;BME280;43896;48.178;11.578;2022-08-14T01:01:44;95575.34;;;18.38;57.34
58092;BME280;43896;48.178;11.578;2022-08-14T01:04:10;95569.63;;;18.34;57.37
58092;BME280;43896;48.178;11.578;2022-08-14T01:06:36;95571.91;;;18.31;57.79
58092;BME280;43896;48.178;11.578;2022-08-14T01:09:02;95565.13;;;18.28;57.75
58092;BME280;43896;48.178;11.578;2022-08-14T01:11:31;95558.59;;;18.31;58.02
58092;BME280;43896;48.178;11.578;2022-08-14T01:13:56;95555.28;;;18.29;57.89
58092;BME280;43896;48.178;11.578;2022-08-14T01:16:26;95550.34;;;18.32;57.80
58092;BME280;43896;48.178;11.578;2022-08-14T01:19:05;95559.59;;;18.30;57.70
58092;BME280;43896;48.178;11.578;2022-08-14T01:21:51;95551.81;;;18.28;57.12
58092;BME280;43896;48.178;11.578;2022-08-14T01:24:21;95556.38;;;18.21;57.92
58092;BME280;43896;48.178;11.578;2022-08-14T01:26:47;95543.13;;;18.08;57.65
58092;BME280;43896;48.178;11.578;2022-08-14T01:29:19;95540.03;;;18.11;57.65
58092;BME280;43896;48.178;11.578;2022-08-14T01:31:46;95551.53;;;18.05;57.74
58092;BME280;43896;48.178;11.578;2022-08-14T01:34:15;95562.13;;;18.18;58.03
58092;BME280;43896;48.178;11.578;2022-08-14T01:36:44;95541.47;;;18.07;57.96
58092;BME280;43896;48.178;11.578;2022-08-14T01:39:14;95516.84;;;17.86;58.51
58092;BME280;43896;48.178;11.578;2022-08-14T01:41:46;95512.91;;;17.82;58.73
58092;BME280;43896;48.178;11.578;2022-08-14T01:44:27;95539.47;;;18.02;59.19
58092;BME280;43896;48.178;11.578;2022-08-14T01:46:58;95507.81;;;17.87;59.35
58092;BME280;43896;48.178;11.578;2022-08-14T01:49:31;95516.38;;;17.96;59.28
58092;BME280;43896;48.178;11.578;2022-08-14T01:51:57;95503.47;;;17.93;59.52
58092;BME280;43896;48.178;11.578;2022-08-14T01:54:24;95486.53;;;17.87;59.22
58092;BME280;43896;48.178;11.578;2022-08-14T01:56:54;95501.06;;;17.91;59.46
58092;BME280;43896;48.178;11.578;2022-08-14T01:59:26;95494.06;;;17.97;60.05
58092;BME280;43896;48.178;11.578;2022-08-14T02:02:04;95511.00;;;18.03;59.76
58092;BME280;43896;48.178;11.578;2022-08-14T02:04:39;95493.72;;;17.87;59.93
58092;BME280;43896;48.178;11.578;2022-08-14T02:07:08;95488.97;;;17.82;60.15
58092;BME280;43896;48.178;11.578;2022-08-14T02:09:37;95484.91;;;17.86;59.88
58092;BME280;43896;48.178;11.578;2022-08-14T02:12:12;95467.13;;;17.73;60.29
58092;BME280;43896;48.178;11.578;2022-08-14T02:14:49;95454.94;;;17.59;60.40
58092;BME280;43896;48.178;11.578;2022-08-14T02:17:15;95454.50;;;17.62;59.84
58092;BME280;43896;48.178;11.578;2022-08-14T02:19:43;95464.53;;;17.60;60.44
58092;BME280;43896;48.178;11.578;2022-08-14T02:22:14;95478.75;;;17.79;60.28
58092;BME280;43896;48.178;11.578;2022-08-14T02:24:48;95464.88;;;17.70;59.61
58092;BME280;43896;48.178;11.578;2022-08-14T02:27:19;95491.63;;;17.82;60.05
58092;BME280;43896;48.178;11.578;2022-08-14T02:29:52;95456.56;;;17.53;60.18
58092;BME280;43896;48.178;11.578;2022-08-14T02:32:30;95488.03;;;17.70;60.15
58092;BME280;43896;48.178;11.578;2022-08-14T02:34:58;95466.22;;;17.48;60.57
58092;BME280;43896;48.178;11.578;2022-08-14T02:37:27;95462.78;;;17.40;60.36
58092;BME280;43896;48.178;11.578;2022-08-14T02:39:57;95474.41;;;17.46;60.91
58092;BME280;43896;48.178;11.578;2022-08-14T02:42:25;95468.88;;;17.48;61.27
58092;BME280;43896;48.178;11.578;2022-08-14T02:44:54;95480.94;;;17.50;60.98
58092;BME280;43896;48.178;11.578;2022-08-14T02:47:20;95483.56;;;17.57;60.41
58092;BME280;43896;48.178;11.578;2022-08-14T02:49:53;95479.50;;;17.54;60.52
58092;BME280;43896;48.178;11.578;2022-08-14T02:52:24;95450.28;;;17.41;60.56
58092;BME280;43896;48.178;11.578;2022-08-14T02:54:54;95449.50;;;17.34;60.69
58092;BME280;43896;48.178;11.578;2022-08-14T02:57:25;95460.72;;;17.42;60.67
58092;BME280;43896;48.178;11.578;2022-08-14T02:59:57;95455.00;;;17.39;60.46
58092;BME280;43896;48.178;11.578;2022-08-14T03:02:26;95441.97;;;17.17;60.51
58092;BME280;43896;48.178;11.578;2022-08-14T03:05:00;95435.66;;;17.18;60.25
58092;BME280;43896;48.178;11.578;2022-08-14T03:07:41;95455.41;;;17.36;60.46
58092;BME280;43896;48.178;11.578;2022-08-14T03:10:12;95456.84;;;17.38;60.79
58092;BME280;43896;48.178;11.578;2022-08-14T03:12:46;95446.00;;;17.40;60.36
58092;BME280;43896;48.178;11.578;2022-08-14T03:15:14;95428.88;;;17.22;60.32
58092;BME280;43896;48.178;11.578;2022-08-14T03:17:40;95459.50;;;17.45;60.69
58092;BME280;43896;48.178;11.578;2022-08-14T03:20:08;95447.44;;;17.36;60.54
58092;BME280;43896;48.178;11.578;2022-08-14T03:22:40;95460.72;;;17.42;60.56
58092;BME280;43896;48.178;11.578;2022-08-14T03:25:08;95431.34;;;17.17;61.06
58092;BME280;43896;48.178;11.578;2022-08-14T03:27:41;95432.81;;;17.13;61.11
58092;BME280;43896;48.178;11.578;2022-08-14T03:30:09;95427.88;;;17.17;61.49
58092;BME280;43896;48.178;11.578;2022-08-14T03:32:37;95421.97;;;17.08;61.23
58092;BME280;43896;48.178;11.578;2022-08-14T03:35:12;95427.69;;;17.12;61.14
58092;BME280;43896;48.178;11.578;2022-08-14T03:37:40;95435.03;;;17.16;60.79
58092;BME280;43896;48.178;11.578;2022-08-14T03:40:07;95437.88;;;17.21;60.85
58092;BME280;43896;48.178;11.578;2022-08-14T03:42:36;95409.97;;;16.99;61.09
58092;BME280;43896;48.178;11.578;2022-08-14T03:45:13;95427.69;;;17.12;61.46
58092;BME280;43896;48.178;11.578;2022-08-14T03:47:39;95403.03;;;16.84;61.32
58092;BME280;43896;48.178;11.578;2022-08-14T03:50:06;95417.97;;;16.85;61.46
58092;BME280;43896;48.178;11.578;2022-08-14T03:52:37;95441.06;;;16.85;61.85
58092;BME280;43896;48.178;11.578;2022-08-14T03:55:11;95404.06;;;16.77;61.24
58092;BME280;43896;48.178;11.578;2022-08-14T03:57:49;95438.34;;;16.98;61.05
58092;BME280;43896;48.178;11.578;2022-08-14T04:00:17;95431.00;;;17.00;60.13
58092;BME280;43896;48.178;11.578;2022-08-14T04:02:45;95439.78;;;17.08;59.66
58092;BME280;43896;48.178;11.578;2022-08-14T04:05:13;95412.84;;;16.91;59.71
58092;BME280;43896;48.178;11.578;2022-08-14T04:07:43;95405.69;;;16.84;59.69
58092;BME280;43896;48.178;11.578;2022-08-14T04:10:12;95388.31;;;16.75;60.02
58092;BME280;43896;48.178;11.578;2022-08-14T04:12:44;95406.72;;;16.90;60.22
58092;BME280;43896;48.178;11.578;2022-08-14T04:15:12;95389.13;;;16.76;60.28
58092;BME280;43896;48.178;11.578;2022-08-14T04:17:43;95389.72;;;16.78;59.99
58092;BME280;43896;48.178;11.578;2022-08-14T04:20:12;95387.91;;;16.78;59.67
58092;BME280;43896;48.178;11.578;2022-08-14T04:22:39;95400.56;;;16.90;59.91
58092;BME280;43896;48.178;11.578;2022-08-14T04:25:08;95391.78;;;16.82;60.56
58092;BME280;43896;48.178;11.578;2022-08-14T04:27:39;95398.31;;;16.93;60.06
58092;BME280;43896;48.178;11.578;2022-08-14T04:30:08;95404.25;;;16.95;59.61
58092;BME280;43896;48.178;11.578;2022-08-14T04:32:34;95410.56;;;17.01;59.73
58092;BME280;43896;48.178;11.578;2022-08-14T04:35:00;95390.16;;;16.88;59.61
58092;BME280;43896;48.178;11.578;2022-08-14T04:37:28;95420.38;;;17.07;59.80
58092;BME280;43896;48.178;11.578;2022-08-14T04:40:21;95400.53;;;17.10;58.85
58092;BME280;43896;48.178;11.578;2022-08-14T04:43:08;95389.09;;;17.09;58.92
58092;BME280;43896;48.178;11.578;2022-08-14T04:45:55;95388.84;;;17.17;59.20
58092;BME280;43896;48.178;11.578;2022-08-14T04:48:26;95374.91;;;17.22;59.73
58092;BME280;43896;48.178;11.578;2022-08-14T04:50:52;95390.00;;;17.35;59.18
58092;BME280;43896;48.178;11.578;2022-08-14T04:53:23;95385.28;;;17.37;59.34
58092;BME280;43896;48.178;11.578;2022-08-14T04:55:54;95374.03;;;17.41;59.07
58092;BME280;43896;48.178;11.578;2022-08-14T04:58:29;95371.59;;;17.40;57.94
58092;BME280;43896;48.178;11.578;2022-08-14T05:01:07;95377.25;;;17.50;56.61
58092;BME280;43896;48.178;11.578;2022-08-14T05:03:40;95373.41;;;17.39;56.46
58092;BME280;43896;48.178;11.578;2022-08-14T05:06:13;95371.47;;;17.60;55.81
58092;BME280;43896;48.178;11.578;2022-08-14T05:08:42;95379.38;;;17.73;55.76
58092;BME280;43896;48.178;11.578;2022-08-14T05:11:12;95386.41;;;17.93;54.80
58092;BME280;43896;48.178;11.578;2022-08-14T05:13:44;95355.38;;;17.80;55.15
58092;BME280;43896;48.178;11.578;2022-08-14T05:16:21;95360.81;;;17.60;55.09
58092;BME280;43896;48.178;11.578;2022-08-14T05:18:48;95346.31;;;17.62;54.45
58092;BME280;43896;48.178;11.578;2022-08-14T05:21:43;95373.84;;;18.07;54.44
58092;BME280;43896;48.178;11.578;2022-08-14T05:24:19;95357.09;;;17.99;54.04
58092;BME280;43896;48.178;11.578;2022-08-14T05:26:56;95346.47;;;17.99;54.60
58092;BME280;43896;48.178;11.578;2022-08-14T05:29:26;95349.47;;;17.78;54.37
58092;BME280;43896;48.178;11.578;2022-08-14T05:31:55;95355.66;;;18.04;54.13
58092;BME280;43896;48.178;11.578;2022-08-14T05:34:21;95382.63;;;18.32;53.72
58092;BME280;43896;48.178;11.578;2022-08-14T05:36:48;95382.00;;;18.37;53.16
58092;BME280;43896;48.178;11.578;2022-08-14T05:39:13;95385.09;;;18.34;52.98
58092;BME280;43896;48.178;11.578;2022-08-14T05:41:38;95385.56;;;18.49;53.26
58092;BME280;43896;48.178;11.578;2022-08-14T05:44:04;95381.50;;;18.47;52.83
58092;BME280;43896;48.178;11.578;2022-08-14T05:46:29;95385.78;;;18.48;52.85
58092;BME280;43896;48.178;11.578;2022-08-14T05:48:56;95384.28;;;18.59;52.13
58092;BME280;43896;48.178;11.578;2022-08-14T05:51:23;95394.41;;;18.68;51.67
58092;BME280;43896;48.178;11.578;2022-08-14T05:53:48;95389.69;;;18.70;51.33
58092;BME280;43896;48.178;11.578;2022-08-14T05:56:14;95401.00;;;18.66;51.25
58092;BME280;43896;48.178;11.578;2022-08-14T05:58:40;95393.31;;;18.76;51.50
58092;BME280;43896;48.178;11.578;2022-08-14T06:01:06;95400.97;;;18.91;51.25
58092;BME280;43896;48.178;11.578;2022-08-14T06:03:33;95389.94;;;18.87;51.25
58092;BME280;43896;48.178;11.578;2022-08-14T06:05:58;95390.63;;;18.83;51.98
58092;BME280;43896;48.178;11.578;2022-08-14T06:08:29;95394.31;;;19.00;51.74
58092;BME280;43896;48.178;11.578;2022-08-14T06:11:00;95401.75;;;18.98;51.31
58092;BME280;43896;48.178;11.578;2022-08-14T06:13:38;95398.41;;;19.21;50.70
58092;BME280;43896;48.178;11.578;2022-08-14T06:16:04;95400.03;;;19.22;50.40
58092;BME280;43896;48.178;11.578;2022-08-14T06:18:29;95398.47;;;19.33;50.90
58092;BME280;43896;48.178;11.578;2022-08-14T06:20:55;95401.84;;;19.40;50.28
58092;BME280;43896;48.178;11.578;2022-08-14T06:23:21;95393.47;;;19.55;50.21
58092;BME280;43896;48.178;11.578;2022-08-14T06:25:46;95383.91;;;19.47;49.78
58092;BME280;43896;48.178;11.578;2022-08-14T06:30:42;95384.31;;;19.63;49.64
58092;BME280;43896;48.178;11.578;2022-08-14T06:33:08;95403.13;;;19.86;49.12
58092;BME280;43896;48.178;11.578;2022-08-14T06:35:33;95391.56;;;19.93;49.16
58092;BME280;43896;48.178;11.578;2022-08-14T06:37:59;95405.38;;;20.01;48.74
58092;BME280;43896;48.178;11.578;2022-08-14T06:40:29;95393.22;;;20.17;48.59
58092;BME280;43896;48.178;11.578;2022-08-14T06:42:56;95387.56;;;20.26;48.33
58092;BME280;43896;48.178;11.578;2022-08-14T06:45:22;95394.75;;;20.37;48.87
58092;BME280;43896;48.178;11.578;2022-08-14T06:47:47;95385.84;;;20.43;47.80
58092;BME280;43896;48.178;11.578;2022-08-14T06:50:16;95388.28;;;20.45;47.64
58092;BME280;43896;48.178;11.578;2022-08-14T06:52:42;95377.03;;;20.66;47.07
58092;BME280;43896;48.178;11.578;2022-08-14T06:55:10;95381.56;;;20.89;47.36
58092;BME280;43896;48.178;11.578;2022-08-14T06:57:41;95382.13;;;20.91;47.55
58092;BME280;43896;48.178;11.578;2022-08-14T07:00:11;95389.69;;;21.06;46.75
58092;BME280;43896;48.178;11.578;2022-08-14T07:02:38;95392.78;;;21.27;46.87
58092;BME280;43896;48.178;11.578;2022-08-14T07:05:22;95383.66;;;21.40;46.99
58092;BME280;43896;48.178;11.578;2022-08-14T07:08:22;95388.78;;;21.53;45.36
58092;BME280;43896;48.178;11.578;2022-08-14T07:10:53;95374.16;;;21.72;45.49
58092;BME280;43896;48.178;11.578;2022-08-14T07:13:19;95367.09;;;21.66;45.09
58092;BME280;43896;48.178;11.578;2022-08-14T07:15:46;95375.78;;;21.73;45.91
58092;BME280;43896;48.178;11.578;2022-08-14T07:18:15;95372.22;;;21.85;45.16
58092;BME280;43896;48.178;11.578;2022-08-14T07:20:43;95372.19;;;22.14;44.54
58092;BME280;43896;48.178;11.578;2022-08-14T07:23:08;95367.81;;;22.24;45.62
58092;BME280;43896;48.178;11.578;2022-08-14T07:25:38;95351.69;;;22.36;44.31
58092;BME280;43896;48.178;11.578;2022-08-14T07:28:15;95347.38;;;22.52;44.43
58092;BME280;43896;48.178;11.578;2022-08-14T07:30:41;95340.31;;;22.63;45.31
58092;BME280;43896;48.178;11.578;2022-08-14T07:33:07;95340.75;;;22.77;44.55
58092;BME280;43896;48.178;11.578;2022-08-14T07:35:33;95341.34;;;22.62;44.54
58092;BME280;43896;48.178;11.578;2022-08-14T07:37:59;95334.75;;;22.87;45.26
58092;BME280;43896;48.178;11.578;2022-08-14T07:40:24;95331.97;;;23.03;44.70
58092;BME280;43896;48.178;11.578;2022-08-14T07:42:51;95330.09;;;23.21;43.59
58092;BME280;43896;48.178;11.578;2022-08-14T07:45:16;95327.59;;;23.14;42.84
58092;BME280;43896;48.178;11.578;2022-08-14T07:47:42;95326.34;;;23.22;43.75
58092;BME280;43896;48.178;11.578;2022-08-14T07:52:37;95314.69;;;23.61;42.66
58092;BME280;43896;48.178;11.578;2022-08-14T07:55:02;95313.72;;;23.72;42.26
58092;BME280;43896;48.178;11.578;2022-08-14T07:57:29;95310.16;;;23.88;41.46
58092;BME280;43896;48.178;11.578;2022-08-14T07:59:54;95309.16;;;24.00;41.28
58092;BME280;43896;48.178;11.578;2022-08-14T08:02:19;95296.69;;;24.15;40.06
58092;BME280;43896;48.178;11.578;2022-08-14T08:04:51;95307.94;;;24.50;39.35
58092;BME280;43896;48.178;11.578;2022-08-14T08:07:17;95311.97;;;24.52;39.87
58092;BME280;43896;48.178;11.578;2022-08-14T08:09:48;95314.47;;;24.59;39.72
58092;BME280;43896;48.178;11.578;2022-08-14T08:12:16;95297.41;;;24.86;40.10
58092;BME280;43896;48.178;11.578;2022-08-14T08:14:44;95303.34;;;24.88;38.94
58092;BME280;43896;48.178;11.578;2022-08-14T08:17:10;95308.47;;;24.95;38.01
58092;BME280;43896;48.178;11.578;2022-08-14T08:19:37;95300.94;;;24.92;37.54
58092;BME280;43896;48.178;11.578;2022-08-14T08:22:03;95308.09;;;25.29;39.03
58092;BME280;43896;48.178;11.578;2022-08-14T08:24:29;95303.53;;;25.29;38.38
58092;BME280;43896;48.178;11.578;2022-08-14T08:26:55;95302.75;;;25.49;37.05
58092;BME280;43896;48.178;11.578;2022-08-14T08:29:22;95304.66;;;25.54;38.15
58092;BME280;43896;48.178;11.578;2022-08-14T08:31:49;95286.06;;;25.42;37.82
58092;BME280;43896;48.178;11.578;2022-08-14T08:34:18;95306.84;;;25.67;38.64
58092;BME280;43896;48.178;11.578;2022-08-14T08:36:45;95306.59;;;25.79;36.16
58092;BME280;43896;48.178;11.578;2022-08-14T08:39:11;95303.34;;;25.67;35.89
58092;BME280;43896;48.178;11.578;2022-08-14T08:41:41;95307.41;;;25.85;36.06
58092;BME280;43896;48.178;11.578;2022-08-14T08:44:07;95315.22;;;25.86;35.74
58092;BME280;43896;48.178;11.578;2022-08-14T08:46:32;95306.34;;;25.75;35.46
58092;BME280;43896;48.178;11.578;2022-08-14T08:48:57;95310.69;;;25.97;35.96
58092;BME280;43896;48.178;11.578;2022-08-14T08:51:26;95303.41;;;26.08;36.12
58092;BME280;43896;48.178;11.578;2022-08-14T08:54:04;95312.59;;;26.27;35.91
58092;BME280;43896;48.178;11.578;2022-08-14T08:56:37;95301.50;;;26.54;36.46
58092;BME280;43896;48.178;11.578;2022-08-14T08:59:15;95298.78;;;26.60;34.64
58092;BME280;43896;48.178;11.578;2022-08-14T09:01:40;95298.25;;;26.63;34.33
58092;BME280;43896;48.178;11.578;2022-08-14T09:04:06;95293.66;;;26.79;34.49
58092;BME280;43896;48.178;11.578;2022-08-14T09:06:42;95291.25;;;26.51;34.50
58092;BME280;43896;48.178;11.578;2022-08-14T09:09:28;95306.91;;;26.70;34.29
58092;BME280;43896;48.178;11.578;2022-08-14T09:11:56;95296.66;;;26.51;34.40
58092;BME280;43896;48.178;11.578;2022-08-14T09:14:26;95299.06;;;26.58;33.90
58092;BME280;43896;48.178;11.578;2022-08-14T09:16:54;95296.13;;;26.39;35.24
58092;BME280;43896;48.178;11.578;2022-08-14T09:19:20;95289.63;;;26.50;33.61
58092;BME280;43896;48.178;11.578;2022-08-14T09:21:45;95288.25;;;26.84;34.54
58092;BME280;43896;48.178;11.578;2022-08-14T09:24:11;95287.69;;;26.76;33.27
58092;BME280;43896;48.178;11.578;2022-08-14T09:26:36;95276.00;;;27.07;34.56
58092;BME280;43896;48.178;11.578;2022-08-14T09:29:04;95274.03;;;27.23;33.94
58092;BME280;43896;48.178;11.578;2022-08-14T09:31:31;95286.44;;;27.24;32.55
58092;BME280;43896;48.178;11.578;2022-08-14T09:37:10;95285.06;;;27.37;33.38
58092;BME280;43896;48.178;11.578;2022-08-14T09:39:51;95276.06;;;27.52;32.14
58092;BME280;43896;48.178;11.578;2022-08-14T09:42:41;95272.03;;;27.94;32.14
58092;BME280;43896;48.178;11.578;2022-08-14T09:45:18;95268.50;;;27.93;32.03
58092;BME280;43896;48.178;11.578;2022-08-14T09:47:48;95271.69;;;28.00;32.07
58092;BME280;43896;48.178;11.578;2022-08-14T09:50:25;95269.84;;;28.30;32.50
58092;BME280;43896;48.178;11.578;2022-08-14T09:52:56;95281.66;;;28.05;31.29
58092;BME280;43896;48.178;11.578;2022-08-14T09:55:23;95284.91;;;28.36;31.43
58092;BME280;43896;48.178;11.578;2022-08-14T09:57:50;95281.97;;;28.33;30.91
58092;BME280;43896;48.178;11.578;2022-08-14T10:00:17;95274.75;;;28.57;30.41
58092;BME280;43896;48.178;11.578;2022-08-14T10:02:54;95265.06;;;28.46;30.54
58092;BME280;43896;48.178;11.578;2022-08-14T10:05:32;95262.88;;;28.48;30.09
58092;BME280;43896;48.178;11.578;2022-08-14T10:07:58;95270.94;;;28.53;29.88
58092;BME280;43896;48.178;11.578;2022-08-14T10:10:35;95257.13;;;28.84;29.09
58092;BME280;43896;48.178;11.578;2022-08-14T10:13:04;95249.28;;;28.83;29.97
58092;BME280;43896;48.178;11.578;2022-08-14T10:15:31;95252.06;;;28.77;29.17
58092;BME280;43896;48.178;11.578;2022-08-14T10:18:14;95249.50;;;28.86;28.30
58092;BME280;43896;48.178;11.578;2022-08-14T10:20:42;95246.91;;;29.00;29.25
58092;BME280;43896;48.178;11.578;2022-08-14T10:23:13;95246.91;;;29.00;29.88
58092;BME280;43896;48.178;11.578;2022-08-14T10:25:44;95225.31;;;28.95;28.64
58092;BME280;43896;48.178;11.578;2022-08-14T10:28:11;95245.13;;;29.14;29.36
58092;BME280;43896;48.178;11.578;2022-08-14T10:30:42;95231.34;;;29.35;28.60
58092;BME280;43896;48.178;11.578;2022-08-14T10:33:08;95240.53;;;29.53;29.75
58092;BME280;43896;48.178;11.578;2022-08-14T10:35:42;95242.25;;;29.30;28.74
58092;BME280;43896;48.178;11.578;2022-08-14T10:38:07;95221.84;;;29.13;28.23
58092;BME280;43896;48.178;11.578;2022-08-14T10:40:33;95222.16;;;29.50;28.07
58092;BME280;43896;48.178;11.578;2022-08-14T10:42:58;95220.06;;;29.28;27.88
58092;BME280;43896;48.178;11.578;2022-08-14T10:45:29;95216.88;;;29.21;27.42
58092;BME280;43896;48.178;11.578;2022-08-14T10:47:55;95226.50;;;29.32;27.58
58092;BME280;43896;48.178;11.578;2022-08-14T10:50:34;95223.28;;;29.49;26.91
58092;BME280;43896;48.178;11.578;2022-08-14T10:53:00;95218.34;;;29.89;26.87
58092;BME280;43896;48.178;11.578;2022-08-14T10:55:34;95209.88;;;30.23;27.60
58092;BME280;43896;48.178;11.578;2022-08-14T10:58:04;95211.84;;;30.37;26.42
58092;BME280;43896;48.178;11.578;2022-08-14T11:00:35;95177.22;;;30.15;27.37
58092;BME280;43896;48.178;11.578;2022-08-14T11:03:06;95198.66;;;30.30;26.37
58092;BME280;43896;48.178;11.578;2022-08-14T11:05:39;95198.69;;;30.58;26.19
58092;BME280;43896;48.178;11.578;2022-08-14T11:08:06;95188.75;;;30.53;25.88
58092;BME280;43896;48.178;11.578;2022-08-14T11:10:40;95184.03;;;30.73;26.76
58092;BME280;43896;48.178;11.578;2022-08-14T11:13:06;95190.75;;;30.89;26.92
58092;BME280;43896;48.178;11.578;2022-08-14T11:15:33;95181.78;;;30.89;26.46
58092;BME280;43896;48.178;11.578;2022-08-14T11:17:59;95181.53;;;30.62;26.15
58092;BME280;43896;48.178;11.578;2022-08-14T11:20:27;95167.53;;;30.83;26.75
58092;BME280;43896;48.178;11.578;2022-08-14T11:22:56;95153.47;;;30.95;27.15
58092;BME280;43896;48.178;11.578;2022-08-14T11:25:24;95165.88;;;31.10;25.76
58092;BME280;43896;48.178;11.578;2022-08-14T11:27:52;95165.00;;;31.00;25.57
58092;BME280;43896;48.178;11.578;2022-08-14T11:30:20;95160.75;;;31.08;26.02
58092;BME280;43896;48.178;11.578;2022-08-14T11:32:48;95152.09;;;31.42;24.90
58092;BME280;43896;48.178;11.578;2022-08-14T11:35:18;95155.47;;;31.39;24.99
58092;BME280;43896;48.178;11.578;2022-08-14T11:40:23;95151.59;;;31.40;27.96
58092;BME280;43896;48.178;11.578;2022-08-14T11:42:51;95131.66;;;31.22;24.84
58092;BME280;43896;48.178;11.578;2022-08-14T11:45:25;95145.84;;;31.56;25.79
58092;BME280;43896;48.178;11.578;2022-08-14T11:47:54;95140.38;;;31.78;24.94
58092;BME280;43896;48.178;11.578;2022-08-14T11:50:27;95134.56;;;31.94;25.12
58092;BME280;43896;48.178;11.578;2022-08-14T11:52:53;95122.19;;;31.79;24.79
58092;BME280;43896;48.178;11.578;2022-08-14T11:55:23;95130.00;;;30.99;23.98
58092;BME280;43896;48.178;11.578;2022-08-14T11:58:01;95126.16;;;31.14;26.65
58092;BME280;43896;48.178;11.578;2022-08-14T12:00:30;95135.00;;;31.19;26.74
58092;BME280;43896;48.178;11.578;2022-08-14T12:02:58;95127.22;;;31.49;27.71
58092;BME280;43896;48.178;11.578;2022-08-14T12:05:28;95119.00;;;31.86;25.59
58092;BME280;43896;48.178;11.578;2022-08-14T12:07:55;95107.47;;;31.57;26.54
58092;BME280;43896;48.178;11.578;2022-08-14T12:10:21;95121.09;;;31.21;28.06
58092;BME280;43896;48.178;11.578;2022-08-14T12:12:46;95116.31;;;31.04;26.77
58092;BME280;43896;48.178;11.578;2022-08-14T12:15:13;95110.59;;;31.28;27.34
58092;BME280;43896;48.178;11.578;2022-08-14T12:17:45;95112.34;;;31.47;27.52
58092;BME280;43896;48.178;11.578;2022-08-14T12:20:13;95113.81;;;31.30;27.17
58092;BME280;43896;48.178;11.578;2022-08-14T12:22:43;95119.44;;;31.34;26.43
58092;BME280;43896;48.178;11.578;2022-08-14T12:25:19;95087.88;;;31.47;26.72
58092;BME280;43896;48.178;11.578;2022-08-14T12:27:48;95095.06;;;31.65;27.17
58092;BME280;43896;48.178;11.578;2022-08-14T12:30:41;95104.19;;;31.47;25.78
58092;BME280;43896;48.178;11.578;2022-08-14T12:33:26;95108.38;;;31.30;26.30
58092;BME280;43896;48.178;11.578;2022-08-14T12:35:56;95085.72;;;31.12;27.29
58092;BME280;43896;48.178;11.578;2022-08-14T12:38:35;95092.75;;;31.50;27.28
58092;BME280;43896;48.178;11.578;2022-08-14T12:41:07;95087.88;;;31.47;27.45
58092;BME280;43896;48.178;11.578;2022-08-14T12:43:53;95097.50;;;31.30;26.76
58092;BME280;43896;48.178;11.578;2022-08-14T12:48:57;95094.34;;;31.82;27.13
58092;BME280;43896;48.178;11.578;2022-08-14T12:51:25;95095.94;;;31.52;26.83
58092;BME280;43896;48.178;11.578;2022-08-14T12:53:55;95072.16;;;31.57;26.38
58092;BME280;43896;48.178;11.578;2022-08-14T12:56:22;95072.28;;;31.52;26.46
58092;BME280;43896;48.178;11.578;2022-08-14T12:58:56;95066.94;;;31.47;27.29
58092;BME280;43896;48.178;11.578;2022-08-14T13:01:32;95062.00;;;31.27;26.63
58092;BME280;43896;48.178;11.578;2022-08-14T13:04:11;95067.75;;;31.02;27.31
58092;BME280;43896;48.178;11.578;2022-08-14T13:06:39;95059.00;;;31.06;27.42
58092;BME280;43896;48.178;11.578;2022-08-14T13:09:06;95067.50;;;31.35;27.29
58092;BME280;43896;48.178;11.578;2022-08-14T13:11:44;95056.50;;;31.40;27.43
58092;BME280;43896;48.178;11.578;2022-08-14T13:14:11;95053.78;;;31.40;26.50
58092;BME280;43896;48.178;11.578;2022-08-14T13:16:40;95051.84;;;31.55;26.73
58092;BME280;43896;48.178;11.578;2022-08-14T13:19:10;95043.03;;;31.35;26.26